Time;durP1;ratioP1;P1;durP2;ratioP2;P2;SDS_P1;SDS_P2;PMS_P1;PMS_P2;Temp;Humidity;BMP_temperature;BMP_pressure;BME280_temperature;BME280_humidity;BME280_pressure;Samples;Min_cycle;Max_cycle;Signal;HPM_P1;HPM_P2
2021/10/31 00:00:34;;;;;;;1.40;1.30;;;14.60;1.00;;;;;;5079999;28;20447;-81
2021/10/31 00:03:02;;;;;;;1.17;1.07;;;14.50;1.00;;;;;;5078927;28;20459;-83
2021/10/31 00:05:30;;;;;;;0.90;0.90;;;14.60;1.00;;;;;;5072640;28;20942;-83
2021/10/31 00:08:00;;;;;;;1.77;0.93;;;14.70;1.00;;;;;;5078686;28;20487;-83
2021/10/31 00:10:28;;;;;;;1.17;1.07;;;14.60;1.00;;;;;;5085633;28;20454;-83
2021/10/31 00:12:57;;;;;;;1.07;1.07;;;14.40;26.40;;;;;;5088826;28;20847;-84
2021/10/31 00:15:25;;;;;;;1.30;1.10;;;14.40;99.90;;;;;;5081104;28;20482;-82
2021/10/31 00:17:54;;;;;;;1.10;1.00;;;14.50;99.90;;;;;;5076793;28;20486;-82
2021/10/31 00:20:22;;;;;;;1.47;1.00;;;14.60;58.30;;;;;;5088845;28;20539;-82
2021/10/31 00:22:50;;;;;;;1.27;1.17;;;14.50;99.90;;;;;;5089359;28;20473;-83
2021/10/31 00:25:20;;;;;;;1.50;1.40;;;14.30;99.90;;;;;;5082303;28;20515;-82
2021/10/31 00:27:48;;;;;;;1.20;1.10;;;14.20;99.90;;;;;;5090519;28;21001;-82
2021/10/31 00:30:16;;;;;;;3.13;1.20;;;14.00;1.00;;;;;;5075251;28;20540;-83
2021/10/31 00:32:45;;;;;;;2.50;1.00;;;14.10;99.90;;;;;;5087292;28;20467;-83
2021/10/31 00:35:13;;;;;;;1.27;1.17;;;14.20;99.90;;;;;;5089937;28;20459;-83
2021/10/31 00:37:41;;;;;;;1.70;1.00;;;14.20;99.90;;;;;;5098670;28;20480;-83
2021/10/31 00:40:11;;;;;;;1.83;0.97;;;14.20;99.90;;;;;;5086543;28;20442;-83
2021/10/31 00:42:40;;;;;;;2.03;1.10;;;14.30;99.90;;;;;;5082070;28;20449;-83
2021/10/31 00:45:09;;;;;;;1.53;1.00;;;14.20;99.90;;;;;;5086753;28;20450;-82
2021/10/31 00:47:37;;;;;;;1.23;1.10;;;14.10;99.90;;;;;;5095447;28;20474;-83
2021/10/31 00:50:06;;;;;;;1.17;1.07;;;14.10;1.00;;;;;;5091767;28;20475;-82
2021/10/31 00:52:36;;;;;;;1.47;1.20;;;14.30;99.90;;;;;;5092273;28;20965;-83
2021/10/31 00:55:05;;;;;;;1.30;1.20;;;14.40;99.90;;;;;;5090893;28;20452;-85
2021/10/31 00:57:34;;;;;;;1.67;1.20;;;14.50;99.90;;;;;;5101033;28;20468;-84
2021/10/31 01:00:05;;;;;;;1.23;1.13;;;14.60;79.10;;;;;;5083656;28;20459;-84
2021/10/31 01:02:33;;;;;;;5.80;3.70;;;14.80;1.00;;;;;;5078843;28;21071;-83
2021/10/31 01:05:03;;;;;;;6.60;3.87;;;14.90;1.00;;;;;;5086763;28;20466;-84
2021/10/31 01:07:56;;;;;;;4.10;2.83;;;15.00;1.00;;;;;;5084554;28;20491;-85
2021/10/31 01:10:36;;;;;;;3.00;1.90;;;15.00;1.00;;;;;;5083771;28;21053;-85
2021/10/31 01:13:20;;;;;;;2.13;1.30;;;15.10;1.00;;;;;;5087311;28;20447;-84
2021/10/31 01:15:59;;;;;;;1.27;1.17;;;15.10;1.00;;;;;;5082391;28;20480;-85
2021/10/31 01:18:54;;;;;;;1.60;1.50;;;15.10;1.00;;;;;;5093378;28;20459;-84
2021/10/31 01:21:34;;;;;;;1.20;1.10;;;15.00;1.00;;;;;;5092417;28;20464;-87
2021/10/31 01:24:27;;;;;;;1.33;0.93;;;14.90;1.00;;;;;;5079303;28;20502;-85
2021/10/31 01:27:12;;;;;;;1.27;1.00;;;14.80;1.00;;;;;;5089769;28;20459;-86
2021/10/31 01:29:52;;;;;;;1.30;1.20;;;14.80;1.00;;;;;;5080972;28;20460;-85
2021/10/31 01:32:37;;;;;;;1.30;1.10;;;14.80;1.00;;;;;;5079340;28;20449;-85
2021/10/31 01:35:15;;;;;;;1.50;1.40;;;14.80;1.00;;;;;;5088807;28;20447;-85
2021/10/31 01:37:55;;;;;;;2.13;1.17;;;14.70;1.00;;;;;;5091251;28;20465;-85
2021/10/31 01:40:31;;;;;;;2.00;1.20;;;14.70;1.00;;;;;;5078061;28;20437;-85
2021/10/31 01:43:09;;;;;;;1.87;1.77;;;14.60;1.00;;;;;;5083498;28;20442;-84
2021/10/31 01:45:42;;;;;;;1.20;1.10;;;14.60;1.00;;;;;;5086945;28;20452;-84
2021/10/31 01:48:22;;;;;;;1.53;1.00;;;14.50;1.00;;;;;;5075112;28;20514;-84
2021/10/31 01:50:56;;;;;;;2.37;1.67;;;14.50;1.00;;;;;;5076623;28;20924;-83
2021/10/31 01:53:30;;;;;;;2.37;1.53;;;14.50;1.00;;;;;;5082925;28;20451;-84
2021/10/31 01:56:02;;;;;;;2.93;1.30;;;14.40;1.00;;;;;;5083121;28;20457;-84
2021/10/31 01:58:34;;;;;;;2.17;1.37;;;14.50;1.00;;;;;;5084857;28;21261;-82
2021/10/31 02:01:05;;;;;;;1.80;1.10;;;14.40;1.00;;;;;;5084080;28;20455;-83
2021/10/31 02:03:39;;;;;;;1.37;1.17;;;14.40;1.00;;;;;;5091607;28;20529;-82
2021/10/31 02:06:09;;;;;;;2.00;1.27;;;14.50;1.00;;;;;;5091145;28;20459;-82
2021/10/31 02:08:39;;;;;;;1.40;1.30;;;14.40;1.00;;;;;;5106726;28;20493;-83
2021/10/31 02:11:10;;;;;;;1.80;1.30;;;14.40;1.00;;;;;;5075984;28;20467;-83
2021/10/31 02:13:40;;;;;;;1.50;1.30;;;14.40;1.00;;;;;;5078660;28;20447;-83
2021/10/31 02:16:09;;;;;;;1.40;1.20;;;14.40;1.00;;;;;;5098068;28;20451;-83
2021/10/31 02:18:41;;;;;;;2.07;1.13;;;14.40;1.00;;;;;;5087191;28;20470;-84
2021/10/31 02:21:11;;;;;;;1.00;0.90;;;14.40;1.00;;;;;;5086838;28;20448;-83
2021/10/31 02:23:40;;;;;;;1.37;1.10;;;14.40;1.00;;;;;;5088915;28;20449;-83
2021/10/31 02:26:09;;;;;;;1.50;1.40;;;14.40;1.00;;;;;;5092267;28;20451;-84
2021/10/31 02:28:38;;;;;;;1.43;1.33;;;14.30;1.00;;;;;;5089070;28;20482;-83
2021/10/31 02:31:06;;;;;;;1.30;1.20;;;14.30;1.00;;;;;;5086165;28;20481;-84
2021/10/31 02:33:35;;;;;;;1.03;0.93;;;14.30;1.00;;;;;;5081913;28;20474;-84
2021/10/31 02:36:03;;;;;;;1.40;1.30;;;14.20;1.00;;;;;;5095109;28;20452;-83
2021/10/31 02:38:32;;;;;;;1.97;1.30;;;14.20;1.00;;;;;;5089218;28;20851;-84
2021/10/31 02:41:01;;;;;;;1.20;1.10;;;14.20;1.00;;;;;;5090678;28;20440;-84
2021/10/31 02:43:29;;;;;;;1.40;1.30;;;14.10;1.00;;;;;;5095848;28;20443;-84
2021/10/31 02:45:58;;;;;;;1.10;1.00;;;14.10;1.00;;;;;;5078227;28;21269;-84
2021/10/31 02:48:26;;;;;;;1.10;1.00;;;14.10;1.00;;;;;;5085986;28;20459;-85
2021/10/31 02:51:02;;;;;;;1.07;1.00;;;14.10;1.00;;;;;;5089075;28;20470;-84
2021/10/31 02:53:37;;;;;;;1.27;1.03;;;14.10;1.00;;;;;;5085676;28;20442;-84
2021/10/31 02:56:14;;;;;;;2.33;1.43;;;14.10;1.00;;;;;;5089147;28;20543;-84
2021/10/31 02:58:46;;;;;;;1.20;1.10;;;14.00;1.00;;;;;;5082682;28;20526;-84
2021/10/31 03:01:16;;;;;;;1.57;0.90;;;14.00;1.00;;;;;;5085736;28;20442;-84
2021/10/31 03:03:45;;;;;;;1.37;1.20;;;14.10;1.00;;;;;;5083792;28;20492;-84
2021/10/31 03:06:14;;;;;;;5.77;3.53;;;14.10;1.00;;;;;;5089256;28;20436;-84
2021/10/31 03:08:42;;;;;;;6.30;1.80;;;14.00;1.00;;;;;;5087600;28;20483;-84
2021/10/31 03:11:12;;;;;;;3.60;1.60;;;14.10;1.00;;;;;;5084075;28;20517;-84
2021/10/31 03:13:40;;;;;;;1.77;1.40;;;14.10;1.00;;;;;;5088408;28;20451;-84
2021/10/31 03:16:09;;;;;;;2.13;1.70;;;14.10;1.00;;;;;;5078130;28;20435;-84
2021/10/31 03:18:38;;;;;;;1.80;1.33;;;14.00;1.00;;;;;;5089488;28;20462;-83
2021/10/31 03:21:06;;;;;;;1.77;1.20;;;14.00;1.00;;;;;;5087933;28;20519;-83
2021/10/31 03:23:35;;;;;;;1.30;1.20;;;14.00;1.00;;;;;;5099291;28;20444;-83
2021/10/31 03:26:03;;;;;;;1.67;1.37;;;14.00;1.00;;;;;;5085160;28;20456;-83
2021/10/31 03:28:33;;;;;;;1.60;1.17;;;14.00;1.00;;;;;;5084344;28;20472;-83
2021/10/31 03:31:01;;;;;;;0.90;0.90;;;14.00;1.00;;;;;;5079959;28;20832;-83
2021/10/31 03:33:30;;;;;;;1.40;1.30;;;14.00;1.00;;;;;;5080935;28;20468;-83
2021/10/31 03:35:59;;;;;;;1.03;0.93;;;14.00;1.00;;;;;;5085242;28;20446;-83
2021/10/31 03:38:28;;;;;;;2.20;1.27;;;14.00;1.00;;;;;;5087244;28;21097;-84
2021/10/31 03:40:57;;;;;;;1.50;1.40;;;14.00;1.00;;;;;;5084311;28;20445;-84
2021/10/31 03:43:26;;;;;;;1.90;1.07;;;14.00;1.00;;;;;;5091971;28;20447;-85
2021/10/31 03:45:56;;;;;;;1.60;1.30;;;13.90;1.00;;;;;;5084288;28;20466;-84
2021/10/31 03:48:24;;;;;;;3.23;1.57;;;13.90;1.00;;;;;;5087406;28;20476;-84
2021/10/31 03:50:52;;;;;;;1.40;1.30;;;13.90;1.00;;;;;;5080485;28;20498;-84
2021/10/31 03:53:21;;;;;;;1.63;1.43;;;13.80;1.00;;;;;;5081234;28;20907;-84
2021/10/31 03:55:49;;;;;;;1.83;1.67;;;13.80;1.00;;;;;;5089283;28;20446;-84
2021/10/31 03:58:17;;;;;;;1.70;1.60;;;13.80;1.00;;;;;;5084660;28;20473;-83
2021/10/31 04:00:46;;;;;;;2.20;2.00;;;13.80;1.00;;;;;;5080301;28;20866;-84
2021/10/31 04:03:16;;;;;;;2.07;1.67;;;13.90;1.00;;;;;;5082703;28;20522;-83
2021/10/31 04:05:44;;;;;;;1.83;1.60;;;13.90;1.00;;;;;;5086601;28;20504;-84
2021/10/31 04:08:12;;;;;;;2.10;1.77;;;13.90;1.00;;;;;;5083239;28;21003;-84
2021/10/31 04:10:41;;;;;;;1.60;1.50;;;13.90;1.00;;;;;;5090012;28;20516;-84
2021/10/31 04:13:09;;;;;;;2.97;1.80;;;13.90;1.00;;;;;;5085758;28;20444;-83
2021/10/31 04:15:38;;;;;;;1.50;1.40;;;13.90;1.00;;;;;;5094922;28;20869;-84
2021/10/31 04:18:06;;;;;;;1.60;1.50;;;13.80;1.00;;;;;;5087642;28;20489;-83
2021/10/31 04:20:36;;;;;;;2.30;1.97;;;13.80;1.00;;;;;;5088187;28;20446;-83
2021/10/31 04:23:04;;;;;;;1.13;1.03;;;13.80;1.00;;;;;;5098889;28;20472;-84
2021/10/31 04:25:32;;;;;;;2.13;1.70;;;13.80;1.00;;;;;;5077040;28;21091;-83
2021/10/31 04:28:00;;;;;;;2.40;1.57;;;13.80;1.00;;;;;;5081456;28;20475;-83
2021/10/31 04:30:29;;;;;;;3.90;2.30;;;13.80;1.00;;;;;;5084154;28;20533;-84
2021/10/31 04:32:57;;;;;;;2.63;2.30;;;13.80;1.00;;;;;;5090853;28;20439;-84
2021/10/31 04:35:25;;;;;;;2.17;1.40;;;13.80;1.00;;;;;;5091464;28;20449;-84
2021/10/31 04:37:57;;;;;;;2.03;1.33;;;13.80;18.40;;;;;;5084864;28;20491;-83
2021/10/31 04:40:25;;;;;;;2.03;1.47;;;13.90;98.40;;;;;;5081458;28;20437;-83
2021/10/31 04:42:54;;;;;;;1.40;1.30;;;14.00;99.90;;;;;;5085969;28;20537;-82
2021/10/31 04:45:22;;;;;;;1.10;1.10;;;14.00;14.50;;;;;;5088661;28;20445;-83
2021/10/31 04:47:50;;;;;;;1.83;1.40;;;14.10;37.70;;;;;;5085830;28;20888;-83
2021/10/31 04:50:18;;;;;;;1.57;1.43;;;14.00;1.00;;;;;;5083715;28;20430;-84
2021/10/31 04:52:47;;;;;;;1.43;1.30;;;14.00;77.50;;;;;;5081290;28;20439;-83
2021/10/31 04:55:16;;;;;;;3.17;1.33;;;14.00;1.00;;;;;;5085234;28;20439;-84
2021/10/31 04:57:44;;;;;;;2.20;1.30;;;14.00;40.20;;;;;;5077684;28;20558;-84
2021/10/31 05:00:15;;;;;;;1.40;1.20;;;14.10;71.30;;;;;;5085781;28;21184;-83
2021/10/31 05:02:43;;;;;;;1.40;1.30;;;14.10;1.00;;;;;;5091786;28;20576;-83
2021/10/31 05:05:11;;;;;;;1.60;1.20;;;14.20;1.00;;;;;;5092999;28;20455;-84
2021/10/31 05:07:40;;;;;;;1.40;1.20;;;14.20;1.00;;;;;;5083544;28;20477;-83
2021/10/31 05:10:09;;;;;;;49.67;18.40;;;14.10;1.00;;;;;;5089817;28;20528;-84
2021/10/31 05:12:38;;;;;;;9.80;5.57;;;14.10;1.00;;;;;;5092033;28;20475;-83
2021/10/31 05:15:08;;;;;;;1.50;1.40;;;14.20;1.60;;;;;;5103886;28;20455;-84
2021/10/31 05:17:36;;;;;;;2.17;1.70;;;14.20;37.80;;;;;;5075184;28;20489;-85
2021/10/31 05:20:06;;;;;;;1.20;1.10;;;14.20;1.00;;;;;;5079386;28;20447;-83
2021/10/31 05:22:34;;;;;;;1.43;1.33;;;14.30;1.00;;;;;;5083809;28;20439;-84
2021/10/31 05:25:03;;;;;;;1.30;1.20;;;14.30;1.00;;;;;;5078429;28;20515;-84
2021/10/31 05:27:32;;;;;;;1.43;1.30;;;14.30;1.00;;;;;;5090430;28;20923;-84
2021/10/31 05:30:04;;;;;;;2.40;1.33;;;14.30;1.00;;;;;;5088849;28;20441;-84
2021/10/31 05:32:34;;;;;;;1.90;1.27;;;14.30;1.00;;;;;;5081334;28;20569;-83
2021/10/31 05:35:03;;;;;;;1.50;1.20;;;14.30;14.80;;;;;;5106416;28;20459;-82
2021/10/31 05:37:34;;;;;;;1.80;1.40;;;14.30;3.60;;;;;;5088613;28;20446;-83
2021/10/31 05:40:03;;;;;;;2.07;1.40;;;14.40;1.00;;;;;;5082335;28;20483;-83
2021/10/31 05:42:32;;;;;;;2.10;1.23;;;14.40;1.00;;;;;;5083241;28;21318;-82
2021/10/31 05:45:02;;;;;;;1.23;1.13;;;14.50;1.00;;;;;;5078708;28;20481;-83
2021/10/31 05:47:30;;;;;;;1.37;1.23;;;14.50;1.00;;;;;;5080400;28;20950;-82
2021/10/31 05:49:58;;;;;;;2.50;1.80;;;14.50;1.00;;;;;;5088073;28;20852;-84
2021/10/31 05:52:26;;;;;;;1.40;1.30;;;14.40;1.00;;;;;;5098035;28;20561;-84
2021/10/31 05:54:55;;;;;;;2.40;1.20;;;14.40;1.00;;;;;;5090211;28;20447;-83
2021/10/31 05:57:23;;;;;;;1.73;1.33;;;14.40;1.00;;;;;;5081929;28;20838;-83
2021/10/31 05:59:51;;;;;;;2.30;1.30;;;14.40;1.00;;;;;;5080527;28;20483;-82
2021/10/31 06:02:21;;;;;;;1.20;1.00;;;14.40;1.00;;;;;;5084776;28;20457;-83
2021/10/31 06:04:51;;;;;;;1.80;1.70;;;14.40;1.00;;;;;;5082847;28;20451;-83
2021/10/31 06:07:19;;;;;;;1.67;1.20;;;14.30;1.00;;;;;;5085694;28;20442;-81
2021/10/31 06:09:47;;;;;;;1.60;1.27;;;14.30;1.00;;;;;;5091096;28;20505;-82
2021/10/31 06:12:16;;;;;;;1.30;1.20;;;14.30;1.00;;;;;;5082034;28;20471;-82
2021/10/31 06:14:44;;;;;;;3.50;1.30;;;14.30;1.00;;;;;;5087951;28;20665;-84
2021/10/31 06:17:12;;;;;;;1.63;1.00;;;14.30;75.40;;;;;;5089385;28;20442;-83
2021/10/31 06:19:42;;;;;;;3.27;1.40;;;14.30;99.90;;;;;;5090796;28;20450;-83
2021/10/31 06:22:11;;;;;;;1.90;1.07;;;14.40;99.90;;;;;;5089552;28;21001;-84
2021/10/31 06:24:39;;;;;;;1.33;1.10;;;14.50;99.90;;;;;;5081300;28;20455;-84
2021/10/31 06:27:07;;;;;;;1.47;1.10;;;14.50;99.90;;;;;;5093125;28;20456;-81
2021/10/31 06:29:36;;;;;;;1.13;1.00;;;14.50;99.90;;;;;;5089280;28;20487;-81
2021/10/31 06:32:05;;;;;;;1.30;1.20;;;14.50;99.90;;;;;;5090271;28;20477;-81
2021/10/31 06:34:33;;;;;;;1.30;1.00;;;14.50;99.90;;;;;;5088785;28;20956;-81
2021/10/31 06:37:03;;;;;;;1.57;1.30;;;14.50;99.90;;;;;;5106414;28;20452;-81
2021/10/31 06:39:31;;;;;;;1.40;1.30;;;14.60;99.90;;;;;;5092012;28;20986;-81
2021/10/31 06:41:59;;;;;;;1.50;1.40;;;14.60;99.90;;;;;;5091387;28;20452;-82
2021/10/31 06:44:27;;;;;;;2.67;1.20;;;14.60;99.90;;;;;;5084986;28;20433;-82
2021/10/31 06:46:56;;;;;;;2.40;1.10;;;14.70;99.90;;;;;;5085168;28;20467;-81
2021/10/31 06:49:24;;;;;;;2.07;1.07;;;14.70;99.90;;;;;;5084755;28;20485;-78
2021/10/31 06:51:52;;;;;;;1.93;1.07;;;14.70;99.90;;;;;;5083653;28;20484;-79
2021/10/31 06:54:21;;;;;;;5.80;1.90;;;14.50;99.90;;;;;;5083706;28;20459;-79
2021/10/31 06:56:50;;;;;;;1.17;1.07;;;14.40;99.90;;;;;;5087932;28;20452;-80
2021/10/31 06:59:18;;;;;;;2.77;1.80;;;14.50;99.90;;;;;;5082955;28;20838;-80
2021/10/31 07:01:46;;;;;;;2.10;1.10;;;14.50;99.90;;;;;;5082550;28;20453;-79
2021/10/31 07:04:14;;;;;;;1.30;1.20;;;14.50;99.90;;;;;;5083524;28;20450;-80
2021/10/31 07:06:43;;;;;;;1.63;1.10;;;14.60;99.90;;;;;;5084935;28;20457;-80
2021/10/31 07:09:11;;;;;;;1.87;1.10;;;14.60;99.90;;;;;;5084620;28;20476;-80
2021/10/31 07:11:40;;;;;;;1.33;1.00;;;14.70;99.90;;;;;;5088670;28;20457;-80
2021/10/31 07:14:09;;;;;;;1.27;0.97;;;14.80;99.90;;;;;;5084001;28;20452;-80
2021/10/31 07:16:38;;;;;;;1.43;1.33;;;14.80;99.90;;;;;;5075887;28;20459;-80
2021/10/31 07:19:06;;;;;;;1.80;1.70;;;14.90;99.90;;;;;;5089030;28;20460;-79
2021/10/31 07:21:34;;;;;;;1.10;1.00;;;14.80;99.90;;;;;;5094682;28;20439;-79
2021/10/31 07:24:03;;;;;;;1.90;1.40;;;14.80;99.90;;;;;;5089203;28;20457;-80
2021/10/31 07:26:31;;;;;;;1.60;1.47;;;14.80;99.90;;;;;;5096872;28;20456;-80
2021/10/31 07:29:01;;;;;;;2.30;1.63;;;14.60;1.00;;;;;;5111496;28;20472;-79
2021/10/31 07:31:33;;;;;;;1.30;1.20;;;14.60;1.00;;;;;;5093597;28;20825;-78
2021/10/31 07:34:02;;;;;;;1.13;1.03;;;14.70;1.00;;;;;;5082112;28;20479;-78
2021/10/31 07:36:31;;;;;;;1.73;1.20;;;14.80;99.90;;;;;;5093256;28;20515;-81
2021/10/31 07:38:59;;;;;;;1.57;1.40;;;15.00;99.90;;;;;;5106539;28;20506;-81
2021/10/31 07:41:27;;;;;;;2.42;1.65;;;15.00;1.00;;;;;;5081390;28;20454;-80
2021/10/31 07:43:56;;;;;;;2.57;1.57;;;14.90;60.20;;;;;;5090916;28;20196;-82
2021/10/31 07:46:25;;;;;;;1.43;1.30;;;15.10;99.90;;;;;;5083805;28;20444;-83
2021/10/31 07:48:54;;;;;;;1.50;1.30;;;15.20;99.90;;;;;;5086604;28;20510;-83
2021/10/31 07:51:22;;;;;;;1.40;1.13;;;15.40;1.00;;;;;;5084685;28;21031;-84
2021/10/31 07:53:50;;;;;;;4.57;1.60;;;15.60;99.90;;;;;;5080251;28;20481;-83
2021/10/31 07:56:22;;;;;;;1.43;1.20;;;15.60;1.00;;;;;;5087536;28;20442;-82
2021/10/31 07:58:55;;;;;;;1.40;1.07;;;15.80;99.90;;;;;;5087576;28;20469;-83
2021/10/31 08:01:25;;;;;;;3.90;1.47;;;15.90;99.90;;;;;;5081898;28;20451;-83
2021/10/31 08:03:54;;;;;;;1.70;1.40;;;15.90;99.90;;;;;;5079388;28;20452;-83
2021/10/31 08:06:23;;;;;;;1.77;1.37;;;16.00;99.90;;;;;;5084455;28;20453;-82
2021/10/31 08:08:52;;;;;;;1.73;1.40;;;16.10;99.90;;;;;;5089894;28;20908;-82
2021/10/31 08:11:20;;;;;;;1.33;1.23;;;16.20;99.90;;;;;;5084180;28;20450;-81
2021/10/31 08:13:48;;;;;;;1.83;1.63;;;16.30;99.90;;;;;;5084938;28;20883;-83
2021/10/31 08:16:17;;;;;;;2.33;1.90;;;16.30;1.00;;;;;;5081198;28;20453;-80
2021/10/31 08:18:46;;;;;;;2.50;1.43;;;16.30;1.00;;;;;;5081517;28;20460;-82
2021/10/31 08:21:14;;;;;;;2.00;1.70;;;16.40;1.00;;;;;;5078581;28;20445;-83
2021/10/31 08:23:43;;;;;;;2.13;1.93;;;16.60;1.00;;;;;;5086789;28;20869;-82
2021/10/31 08:26:11;;;;;;;1.30;1.20;;;16.70;1.00;;;;;;5086187;28;20945;-82
2021/10/31 08:28:40;;;;;;;1.50;1.40;;;16.80;1.00;;;;;;5087760;28;20474;-82
2021/10/31 08:31:09;;;;;;;1.63;1.53;;;17.00;1.00;;;;;;5085025;28;20449;-84
2021/10/31 08:33:43;;;;;;;1.87;1.63;;;17.10;1.00;;;;;;5083101;28;20988;-83
2021/10/31 08:36:14;;;;;;;1.10;1.00;;;17.20;1.00;;;;;;5087008;28;20448;-84
2021/10/31 08:38:42;;;;;;;1.10;1.00;;;17.40;1.00;;;;;;5080780;28;20468;-83
2021/10/31 08:41:11;;;;;;;1.20;1.10;;;17.30;1.00;;;;;;5081981;28;20939;-84
2021/10/31 08:43:40;;;;;;;1.47;1.30;;;17.40;1.00;;;;;;5086584;28;20939;-83
2021/10/31 08:46:09;;;;;;;1.90;1.80;;;17.50;1.00;;;;;;5084519;28;20459;-83
2021/10/31 08:48:39;;;;;;;1.07;0.97;;;17.70;1.00;;;;;;5083513;28;20475;-84
2021/10/31 08:51:07;;;;;;;0.90;0.90;;;17.70;1.00;;;;;;5068276;28;20466;-82
2021/10/31 08:53:37;;;;;;;1.07;1.07;;;17.70;1.00;;;;;;5080225;28;20488;-82
2021/10/31 08:56:10;;;;;;;1.20;1.00;;;17.80;1.00;;;;;;5091659;28;20458;-82
2021/10/31 08:58:39;;;;;;;1.80;1.00;;;17.80;99.90;;;;;;5085396;28;20481;-82
2021/10/31 09:01:08;;;;;;;1.70;0.90;;;17.90;99.90;;;;;;5082841;28;20455;-82
2021/10/31 09:03:36;;;;;;;1.10;1.00;;;18.00;99.90;;;;;;5083465;28;20485;-82
2021/10/31 09:06:05;;;;;;;1.30;1.13;;;18.00;99.90;;;;;;5084378;28;20453;-83
2021/10/31 09:08:33;;;;;;;1.07;1.00;;;18.10;99.90;;;;;;5079386;28;20821;-81
2021/10/31 09:11:03;;;;;;;0.77;0.77;;;18.10;99.90;;;;;;5081357;28;20464;-82
2021/10/31 09:13:31;;;;;;;1.23;0.90;;;17.80;99.90;;;;;;5078763;28;20487;-81
2021/10/31 09:16:00;;;;;;;1.90;1.20;;;17.80;99.90;;;;;;5094449;28;21022;-78
2021/10/31 09:18:29;;;;;;;1.30;1.10;;;17.90;99.90;;;;;;5081234;28;20995;-83
2021/10/31 09:20:58;;;;;;;1.03;0.97;;;18.10;99.90;;;;;;5081671;28;20463;-79
2021/10/31 09:23:26;;;;;;;1.13;1.00;;;18.30;99.90;;;;;;5082124;28;20536;-83
2021/10/31 09:25:54;;;;;;;0.80;0.80;;;18.40;99.90;;;;;;5086848;28;20457;-82
2021/10/31 09:28:24;;;;;;;1.10;0.90;;;18.60;99.90;;;;;;5083110;28;20474;-81
2021/10/31 09:30:52;;;;;;;1.13;0.93;;;18.80;99.90;;;;;;5077861;28;20972;-83
2021/10/31 09:33:20;;;;;;;1.00;0.97;;;18.90;99.90;;;;;;5077142;28;21016;-83
2021/10/31 09:35:51;;;;;;;0.83;0.83;;;19.00;99.90;;;;;;5082680;28;20470;-83
2021/10/31 09:38:24;;;;;;;0.80;0.80;;;19.10;99.90;;;;;;5077315;28;20544;-81
2021/10/31 09:40:53;;;;;;;2.07;1.30;;;19.40;99.90;;;;;;5093037;28;20450;-81
2021/10/31 09:43:27;;;;;;;1.53;1.00;;;19.50;99.90;;;;;;5088572;28;20519;-81
2021/10/31 09:45:59;;;;;;;1.00;0.90;;;19.50;99.90;;;;;;5088377;28;20453;-82
2021/10/31 09:48:32;;;;;;;1.20;1.10;;;19.60;99.90;;;;;;5081544;28;20462;-84
2021/10/31 09:51:02;;;;;;;1.73;1.03;;;19.60;99.90;;;;;;5084938;28;20461;-84
2021/10/31 09:53:31;;;;;;;1.63;1.10;;;19.60;99.90;;;;;;5086262;28;20958;-85
2021/10/31 09:56:00;;;;;;;1.00;0.90;;;19.70;99.90;;;;;;5086879;28;20855;-84
2021/10/31 09:58:34;;;;;;;0.80;0.80;;;19.70;99.90;;;;;;5086024;28;20496;-82
2021/10/31 10:01:10;;;;;;;1.20;0.70;;;19.90;99.90;;;;;;5079053;28;20457;-81
2021/10/31 10:03:38;;;;;;;0.83;0.83;;;19.90;99.90;;;;;;5077217;28;21226;-82
2021/10/31 10:06:17;;;;;;;0.63;0.63;;;20.10;99.90;;;;;;5092040;28;20442;-82
2021/10/31 10:09:06;;;;;;;0.70;0.70;;;20.20;99.90;;;;;;5084965;28;20891;-82
2021/10/31 10:11:36;;;;;;;0.70;0.70;;;20.30;99.90;;;;;;5094301;28;20462;-82
2021/10/31 10:14:11;;;;;;;0.97;0.60;;;20.30;99.90;;;;;;5091881;28;20467;-81
2021/10/31 10:16:40;;;;;;;0.60;0.60;;;20.40;99.90;;;;;;5085489;28;20453;-81
2021/10/31 10:19:23;;;;;;;1.10;0.70;;;20.40;99.90;;;;;;5097984;28;20535;-81
2021/10/31 10:22:03;;;;;;;1.07;0.53;;;20.30;99.90;;;;;;5089232;28;20446;-80
2021/10/31 10:24:34;;;;;;;0.83;0.70;;;20.40;99.90;;;;;;5070651;28;20449;-80
2021/10/31 10:27:06;;;;;;;0.87;0.83;;;20.50;99.90;;;;;;5088661;28;20964;-80
2021/10/31 10:29:39;;;;;;;0.70;0.70;;;20.40;99.90;;;;;;5090256;28;20992;-82
2021/10/31 10:32:11;;;;;;;0.60;0.60;;;20.60;99.90;;;;;;5086150;28;20816;-82
2021/10/31 10:34:45;;;;;;;0.70;0.70;;;20.80;99.90;;;;;;5078021;28;20485;-79
2021/10/31 10:37:15;;;;;;;0.60;0.60;;;21.00;99.90;;;;;;5089739;28;20459;-80
2021/10/31 10:39:46;;;;;;;0.70;0.70;;;21.10;99.90;;;;;;5081509;28;20483;-81
2021/10/31 10:42:22;;;;;;;1.03;0.70;;;21.40;99.90;;;;;;5074599;28;20441;-81
2021/10/31 10:44:55;;;;;;;0.97;0.97;;;21.20;99.90;;;;;;5087822;28;20466;-80
2021/10/31 10:47:24;;;;;;;0.60;0.60;;;21.60;99.90;;;;;;5072435;28;20456;-79
2021/10/31 10:49:54;;;;;;;0.80;0.80;;;21.90;99.90;;;;;;5083464;28;20977;-82
2021/10/31 10:52:26;;;;;;;0.60;0.60;;;22.10;99.90;;;;;;5080149;28;20815;-80
2021/10/31 10:54:57;;;;;;;0.70;0.60;;;22.20;99.90;;;;;;5084599;28;20478;-80
2021/10/31 10:57:28;;;;;;;2.50;0.70;;;22.40;99.90;;;;;;5105337;28;20442;-82
2021/10/31 11:00:04;;;;;;;0.63;0.63;;;22.50;99.90;;;;;;5089359;28;21024;-80
2021/10/31 11:02:33;;;;;;;0.63;0.63;;;22.60;99.90;;;;;;5083121;28;20527;-80
2021/10/31 11:05:03;;;;;;;0.73;0.67;;;22.90;99.90;;;;;;5090915;28;20484;-82
2021/10/31 11:07:41;;;;;;;1.00;0.70;;;22.70;99.90;;;;;;5076450;28;20554;-82
2021/10/31 11:10:17;;;;;;;0.67;0.67;;;22.50;99.90;;;;;;5089906;28;20451;-81
2021/10/31 11:12:48;;;;;;;0.60;0.60;;;22.40;99.90;;;;;;5096129;28;20442;-81
2021/10/31 11:15:19;;;;;;;0.90;0.83;;;22.20;99.90;;;;;;5089576;28;20474;-82
2021/10/31 11:17:50;;;;;;;0.60;0.60;;;22.00;99.90;;;;;;5089615;28;20479;-81
2021/10/31 11:20:19;;;;;;;1.00;0.80;;;21.90;99.90;;;;;;5091326;28;20440;-83
2021/10/31 11:22:50;;;;;;;0.70;0.70;;;21.90;99.90;;;;;;5089616;28;20479;-81
2021/10/31 11:25:21;;;;;;;0.60;0.60;;;21.90;99.90;;;;;;5102709;28;20452;-80
2021/10/31 11:27:51;;;;;;;0.70;0.70;;;21.60;99.90;;;;;;5087165;28;20530;-81
2021/10/31 11:30:22;;;;;;;0.70;0.70;;;21.40;99.90;;;;;;5081324;28;20444;-80
2021/10/31 11:32:51;;;;;;;0.83;0.83;;;21.20;99.90;;;;;;5083703;28;20463;-80
2021/10/31 11:35:22;;;;;;;1.60;1.50;;;21.20;99.90;;;;;;5086773;28;20464;-79
2021/10/31 11:38:00;;;;;;;0.80;0.80;;;21.20;99.90;;;;;;5100438;28;20518;-82
2021/10/31 11:40:32;;;;;;;3.23;0.80;;;21.10;99.90;;;;;;5078937;28;20458;-82
2021/10/31 11:43:01;;;;;;;0.80;0.73;;;21.00;99.90;;;;;;5083522;28;20450;-82
2021/10/31 11:45:34;;;;;;;0.70;0.70;;;20.90;99.90;;;;;;5080980;28;21205;-80
2021/10/31 11:48:14;;;;;;;0.70;0.70;;;20.80;99.90;;;;;;5086384;28;20466;-82
2021/10/31 11:50:44;;;;;;;0.70;0.70;;;20.80;99.90;;;;;;5083321;28;20820;-82
2021/10/31 11:53:19;;;;;;;0.60;0.60;;;21.00;99.90;;;;;;5081806;28;20962;-81
2021/10/31 11:55:53;;;;;;;0.60;0.60;;;21.10;99.90;;;;;;5076490;28;21221;-82
2021/10/31 11:59:00;;;;;;;0.70;0.70;;;21.20;99.90;;;;;;5075752;28;21104;-79
2021/10/31 12:01:36;;;;;;;0.70;0.70;;;21.20;99.90;;;;;;5080652;28;20519;-81
2021/10/31 12:04:06;;;;;;;1.30;1.00;;;21.20;99.90;;;;;;5085568;28;20518;-81
2021/10/31 12:06:44;;;;;;;0.70;0.70;;;21.30;99.90;;;;;;5085270;28;20509;-80
2021/10/31 12:09:34;;;;;;;0.80;0.80;;;21.40;99.90;;;;;;5083647;28;21046;-80
2021/10/31 12:12:23;;;;;;;0.63;0.63;;;21.40;99.90;;;;;;5080496;28;20503;-79
2021/10/31 12:14:56;;;;;;;0.70;0.60;;;21.50;99.90;;;;;;5083236;28;21361;-80
2021/10/31 12:17:47;;;;;;;1.47;1.17;;;21.60;99.90;;;;;;5083360;28;20478;-77
2021/10/31 12:20:51;;;;;;;1.27;1.17;;;21.60;99.90;;;;;;5082461;28;20466;-78
2021/10/31 12:23:21;;;;;;;1.20;0.80;;;21.60;99.90;;;;;;5079640;28;20805;-77
2021/10/31 12:25:49;;;;;;;2.17;0.70;;;21.60;99.90;;;;;;5082329;28;20523;-81
2021/10/31 12:28:37;;;;;;;0.60;0.60;;;21.60;99.90;;;;;;5089453;28;20839;-82
2021/10/31 12:31:27;;;;;;;0.97;0.80;;;21.50;99.90;;;;;;5082880;28;20460;-80
2021/10/31 12:34:15;;;;;;;0.80;0.80;;;21.50;99.90;;;;;;5081509;28;20450;-81
2021/10/31 12:36:46;;;;;;;0.60;0.60;;;21.50;99.90;;;;;;5087797;28;21029;-81
2021/10/31 12:40:04;;;;;;;0.60;0.60;;;21.40;99.90;;;;;;5097557;28;20569;-81
2021/10/31 12:42:35;;;;;;;0.80;0.80;;;21.40;99.90;;;;;;5102274;28;20441;-82
2021/10/31 12:45:21;;;;;;;1.33;0.90;;;21.50;99.90;;;;;;5084315;28;20446;-81
2021/10/31 12:47:54;;;;;;;0.80;0.80;;;21.50;99.90;;;;;;5100056;28;20489;-81
2021/10/31 12:50:26;;;;;;;0.70;0.70;;;21.50;99.90;;;;;;5088473;28;20445;-81
2021/10/31 12:53:00;;;;;;;0.80;0.80;;;21.40;99.90;;;;;;5087068;28;20457;-84
2021/10/31 12:55:30;;;;;;;0.67;0.60;;;21.50;99.90;;;;;;5086266;28;20484;-83
2021/10/31 12:58:01;;;;;;;0.70;0.70;;;21.60;99.90;;;;;;5091672;28;20990;-82
2021/10/31 13:00:31;;;;;;;1.17;1.07;;;21.60;99.90;;;;;;5088073;28;20454;-76
2021/10/31 13:03:02;;;;;;;0.83;0.83;;;21.60;99.90;;;;;;5083987;28;20468;-79
2021/10/31 13:05:33;;;;;;;0.73;0.70;;;21.50;99.90;;;;;;5080039;28;20451;-81
2021/10/31 13:08:04;;;;;;;0.83;0.83;;;21.40;99.90;;;;;;5074823;28;20508;-81
2021/10/31 13:10:34;;;;;;;0.93;0.90;;;21.40;99.90;;;;;;5094871;28;20447;-82